Time;durP1;ratioP1;P1;durP2;ratioP2;P2;SDS_P1;SDS_P2;PMS_P1;PMS_P2;Temp;Humidity;BMP_temperature;BMP_pressure;BME280_temperature;BME280_humidity;BME280_pressure;Samples;Min_cycle;Max_cycle;Signal;HPM_P1;HPM_P2
2022/04/11 00:02:06;;;;;;;6.70;4.40;;;11.10;91.80;;;;;;4915971;29;20464;-72
2022/04/11 00:04:32;;;;;;;6.53;4.00;;;11.00;91.80;;;;;;4900786;29;20486;-72
2022/04/11 00:07:01;;;;;;;6.00;4.27;;;11.10;92.30;;;;;;4901466;29;20565;-72
2022/04/11 00:09:29;;;;;;;7.00;4.47;;;11.00;91.90;;;;;;4916352;29;20474;-72
2022/04/11 00:11:56;;;;;;;7.20;5.10;;;11.00;91.90;;;;;;4927087;29;20526;-72
2022/04/11 00:14:23;;;;;;;8.10;4.47;;;11.00;91.90;;;;;;4934824;29;20939;-72
2022/04/11 00:16:53;;;;;;;7.50;4.37;;;11.00;91.90;;;;;;4924577;29;20463;-72
2022/04/11 00:19:21;;;;;;;9.53;4.40;;;11.00;92.00;;;;;;4914803;29;20422;-72
2022/04/11 00:21:49;;;;;;;8.63;4.90;;;11.00;92.00;;;;;;4915796;29;20474;-71
2022/04/11 00:24:18;;;;;;;12.50;6.17;;;11.00;92.10;;;;;;4916769;29;20968;-72
2022/04/11 00:26:44;;;;;;;7.80;4.50;;;10.90;92.00;;;;;;4909629;29;20845;-72
2022/04/11 00:29:14;;;;;;;9.37;4.87;;;10.90;92.40;;;;;;4927624;29;20421;-72
2022/04/11 00:31:40;;;;;;;8.77;4.73;;;10.90;92.10;;;;;;4915126;29;20448;-72
2022/04/11 00:34:08;;;;;;;9.20;5.07;;;10.90;92.10;;;;;;4919059;29;20436;-72
2022/04/11 00:36:34;;;;;;;8.47;4.33;;;10.90;92.10;;;;;;4923541;29;20523;-72
2022/04/11 00:39:00;;;;;;;9.90;4.40;;;10.90;92.10;;;;;;4928928;29;20486;-72
2022/04/11 00:41:29;;;;;;;6.87;4.40;;;10.90;92.20;;;;;;4934387;29;20448;-72
2022/04/11 00:43:55;;;;;;;5.27;4.00;;;10.90;92.20;;;;;;4915085;29;20574;-72
2022/04/11 00:46:20;;;;;;;7.57;4.47;;;10.90;92.30;;;;;;4920977;29;20939;-72
2022/04/11 00:48:47;;;;;;;6.37;3.93;;;10.80;92.20;;;;;;4932653;29;20496;-72
2022/04/11 00:51:26;;;;;;;9.20;4.60;;;10.80;92.20;;;;;;4915030;29;20920;-72
2022/04/11 00:53:57;;;;;;;7.53;4.00;;;10.80;92.20;;;;;;4915603;29;20440;-72
2022/04/11 00:56:28;;;;;;;7.40;4.37;;;10.80;92.20;;;;;;4905005;29;20827;-72
2022/04/11 00:59:01;;;;;;;6.60;4.07;;;10.80;92.30;;;;;;4946294;29;20429;-72
2022/04/11 01:01:32;;;;;;;6.83;4.50;;;10.80;92.40;;;;;;4914748;29;20412;-72
2022/04/11 01:04:02;;;;;;;6.63;4.40;;;10.80;92.40;;;;;;4917066;29;20484;-71
2022/04/11 01:06:28;;;;;;;6.63;4.23;;;10.80;92.40;;;;;;4930499;29;20448;-71
2022/04/11 01:08:56;;;;;;;6.40;3.73;;;10.80;92.40;;;;;;4899044;29;20469;-71
2022/04/11 01:11:22;;;;;;;7.40;3.93;;;10.70;92.40;;;;;;4916465;29;20414;-71
2022/04/11 01:13:48;;;;;;;6.13;4.27;;;10.70;92.40;;;;;;4947975;29;20449;-71
2022/04/11 01:16:28;;;;;;;5.40;3.60;;;10.70;92.40;;;;;;4913548;29;21064;-71
2022/04/11 01:18:56;;;;;;;5.17;3.40;;;10.70;92.40;;;;;;4933827;29;20457;-71
2022/04/11 01:21:26;;;;;;;5.53;3.47;;;10.70;92.50;;;;;;4928644;29;20494;-71
2022/04/11 01:23:54;;;;;;;5.40;3.50;;;10.70;92.50;;;;;;4895537;29;20471;-71
2022/04/11 01:26:22;;;;;;;6.77;3.67;;;10.70;92.50;;;;;;4905576;29;20461;-71
2022/04/11 01:28:51;;;;;;;5.70;3.47;;;10.70;92.50;;;;;;4949550;29;20435;-71
2022/04/11 01:31:20;;;;;;;4.10;3.17;;;10.60;92.50;;;;;;4929337;29;20789;-71
2022/04/11 01:33:48;;;;;;;5.83;3.97;;;10.60;92.50;;;;;;4899007;29;20537;-71
2022/04/11 01:36:18;;;;;;;6.13;3.53;;;10.60;92.50;;;;;;4918055;29;21182;-71
2022/04/11 01:38:47;;;;;;;6.23;3.87;;;10.60;92.50;;;;;;4933403;29;20438;-71
2022/04/11 01:41:13;;;;;;;5.13;3.57;;;10.60;92.50;;;;;;4928229;29;20456;-71
2022/04/11 01:43:46;;;;;;;6.93;3.40;;;10.60;92.60;;;;;;4949374;29;20449;-71
2022/04/11 01:46:12;;;;;;;4.97;3.20;;;10.60;92.60;;;;;;4947842;29;20482;-71
2022/04/11 01:48:42;;;;;;;4.43;3.10;;;10.60;92.60;;;;;;4949185;29;20402;-71
2022/04/11 01:51:09;;;;;;;5.23;3.70;;;10.60;92.60;;;;;;4924016;29;20602;-71
2022/04/11 01:53:35;;;;;;;4.93;2.87;;;10.50;92.60;;;;;;4918589;29;20830;-71
2022/04/11 01:56:01;;;;;;;6.10;3.03;;;10.50;92.70;;;;;;4943595;29;20521;-72
2022/04/11 01:58:30;;;;;;;3.30;2.73;;;10.50;92.70;;;;;;4901893;29;21048;-71
2022/04/11 02:00:58;;;;;;;5.20;3.20;;;10.50;92.70;;;;;;4949327;29;20418;-71
2022/04/11 02:03:31;;;;;;;3.47;2.93;;;10.50;92.80;;;;;;4932645;29;20452;-71
2022/04/11 02:06:00;;;;;;;4.77;2.90;;;10.50;92.80;;;;;;4928337;29;20956;-71
2022/04/11 02:08:28;;;;;;;3.50;2.67;;;10.50;92.90;;;;;;4915578;29;20954;-71
2022/04/11 02:11:00;;;;;;;4.07;2.70;;;10.50;92.90;;;;;;4949119;29;20527;-71
2022/04/11 02:13:34;;;;;;;6.93;2.90;;;10.50;92.90;;;;;;4931275;29;20413;-71
2022/04/11 02:16:02;;;;;;;3.17;2.40;;;10.50;92.90;;;;;;4914868;29;20440;-71
2022/04/11 02:18:31;;;;;;;6.03;3.30;;;10.50;93.00;;;;;;4909363;29;20428;-71
2022/04/11 02:20:59;;;;;;;4.30;2.70;;;10.40;92.90;;;;;;4898754;29;20417;-71
2022/04/11 02:23:27;;;;;;;4.63;2.40;;;10.40;93.00;;;;;;4917437;29;20441;-71
2022/04/11 02:25:57;;;;;;;5.13;2.60;;;10.40;93.00;;;;;;4931430;29;20438;-71
2022/04/11 02:28:26;;;;;;;3.60;2.73;;;10.40;93.00;;;;;;4898190;29;20451;-71
2022/04/11 02:30:52;;;;;;;5.00;3.10;;;10.40;93.10;;;;;;4914409;29;20418;-71
2022/04/11 02:33:18;;;;;;;4.03;2.63;;;10.40;93.10;;;;;;4917359;29;20429;-71
2022/04/11 02:35:49;;;;;;;2.57;2.27;;;10.40;93.10;;;;;;4915423;29;20285;-71
2022/04/11 02:38:18;;;;;;;3.90;2.90;;;10.40;93.10;;;;;;4898156;29;20454;-71
2022/04/11 02:40:49;;;;;;;5.00;2.80;;;10.40;93.20;;;;;;4921722;29;20473;-71
2022/04/11 02:43:22;;;;;;;5.00;2.73;;;10.40;93.20;;;;;;4899348;29;20473;-71
2022/04/11 02:45:55;;;;;;;4.23;2.60;;;10.30;93.20;;;;;;4919254;29;20518;-71
2022/04/11 02:48:27;;;;;;;4.47;2.73;;;10.30;93.20;;;;;;4933516;29;20508;-71
2022/04/11 02:51:12;;;;;;;5.00;2.80;;;10.30;93.60;;;;;;4919001;29;20454;-71
2022/04/11 02:53:52;;;;;;;4.73;2.80;;;10.30;93.20;;;;;;4918164;29;20410;-71
2022/04/11 02:56:20;;;;;;;2.80;2.53;;;10.30;93.30;;;;;;4950499;28;20988;-71
2022/04/11 02:58:47;;;;;;;3.27;2.60;;;10.30;93.30;;;;;;4917104;29;20523;-71
2022/04/11 03:01:16;;;;;;;4.37;2.77;;;10.30;93.30;;;;;;4936170;29;20435;-71
2022/04/11 03:03:45;;;;;;;2.80;2.03;;;10.30;93.40;;;;;;4951163;29;20955;-71
2022/04/11 03:06:11;;;;;;;3.97;2.63;;;10.30;93.40;;;;;;4946968;29;20452;-71
2022/04/11 03:08:41;;;;;;;4.23;3.10;;;10.30;93.40;;;;;;4951787;29;20461;-71
2022/04/11 03:11:10;;;;;;;4.87;2.70;;;10.20;93.40;;;;;;4933389;29;20487;-71
2022/04/11 03:13:36;;;;;;;2.90;2.20;;;10.20;93.40;;;;;;4932598;23;20531;-73
2022/04/11 03:16:02;;;;;;;3.63;2.27;;;10.20;93.40;;;;;;4919748;29;20472;-72
2022/04/11 03:18:30;;;;;;;4.30;2.60;;;10.20;93.40;;;;;;4920039;29;20920;-73
2022/04/11 03:20:58;;;;;;;6.63;2.50;;;10.20;93.80;;;;;;4919871;29;20978;-72
2022/04/11 03:23:25;;;;;;;3.63;2.30;;;10.20;93.50;;;;;;4919917;29;20457;-73
2022/04/11 03:25:56;;;;;;;3.80;2.87;;;10.20;93.50;;;;;;4935637;29;20417;-73
2022/04/11 03:28:26;;;;;;;3.60;2.30;;;10.20;93.50;;;;;;4904985;29;20429;-73
2022/04/11 03:30:55;;;;;;;4.53;2.40;;;10.20;93.50;;;;;;4935967;29;20906;-73
2022/04/11 03:33:22;;;;;;;4.03;2.70;;;10.20;93.60;;;;;;4920026;29;20768;-72
2022/04/11 03:35:48;;;;;;;2.93;2.63;;;10.20;93.60;;;;;;4935590;29;20431;-73
2022/04/11 03:38:14;;;;;;;3.27;2.37;;;10.20;93.60;;;;;;4903956;29;20457;-72
2022/04/11 03:40:40;;;;;;;2.40;2.20;;;10.10;93.60;;;;;;4936771;29;20503;-73
2022/04/11 03:43:10;;;;;;;3.27;2.50;;;10.10;93.60;;;;;;4935774;29;20468;-73
2022/04/11 03:45:37;;;;;;;2.43;2.10;;;10.10;93.60;;;;;;4935270;29;20526;-72
2022/04/11 03:48:05;;;;;;;2.70;2.37;;;10.10;93.60;;;;;;4920321;29;20448;-73
2022/04/11 03:50:36;;;;;;;2.13;1.93;;;10.10;93.70;;;;;;4919786;29;20420;-73
2022/04/11 03:53:02;;;;;;;2.27;2.07;;;10.10;93.70;;;;;;4919905;29;21054;-73
2022/04/11 03:55:29;;;;;;;5.00;2.80;;;10.10;93.70;;;;;;4917141;29;20957;-73
2022/04/11 03:57:55;;;;;;;4.60;2.60;;;10.10;93.70;;;;;;4904026;29;20810;-73
2022/04/11 04:00:25;;;;;;;2.60;2.07;;;10.10;93.70;;;;;;4935354;29;21286;-73
2022/04/11 04:03:16;;;;;;;3.17;2.20;;;10.10;93.70;;;;;;4935766;29;20465;-72
2022/04/11 04:05:47;;;;;;;3.93;2.23;;;10.10;93.70;;;;;;4919462;29;20886;-73
2022/04/11 04:08:18;;;;;;;2.83;2.03;;;10.00;93.70;;;;;;4919590;29;20579;-72
2022/04/11 04:10:54;;;;;;;2.53;2.30;;;10.00;93.70;;;;;;4919425;29;20435;-73
2022/04/11 04:13:23;;;;;;;2.97;2.27;;;10.00;93.70;;;;;;4919405;29;20919;-72
2022/04/11 04:15:50;;;;;;;5.10;2.77;;;10.00;93.70;;;;;;4934598;29;20232;-72
2022/04/11 04:18:16;;;;;;;3.80;3.13;;;10.00;93.80;;;;;;4935215;29;20439;-73
2022/04/11 04:20:44;;;;;;;3.83;2.17;;;10.00;93.80;;;;;;4916273;29;20430;-73
2022/04/11 04:23:18;;;;;;;3.80;2.20;;;10.00;93.70;;;;;;4914982;29;20441;-72
2022/04/11 04:25:47;;;;;;;3.03;2.07;;;10.00;93.70;;;;;;4934244;29;20432;-72
2022/04/11 04:28:15;;;;;;;5.33;2.50;;;10.00;93.70;;;;;;4919333;29;20440;-73
2022/04/11 04:30:41;;;;;;;2.67;2.37;;;10.00;93.70;;;;;;4918895;29;20432;-73
2022/04/11 04:33:14;;;;;;;2.73;2.20;;;10.00;93.80;;;;;;4919513;29;20421;-73
2022/04/11 04:35:49;;;;;;;2.70;2.23;;;10.00;93.80;;;;;;4934282;29;20430;-73
2022/04/11 04:38:17;;;;;;;4.77;2.30;;;9.90;94.30;;;;;;4933309;29;20445;-74
2022/04/11 04:40:48;;;;;;;2.40;1.90;;;9.90;94.30;;;;;;4919081;29;20425;-75
2022/04/11 04:43:21;;;;;;;4.90;2.20;;;9.90;94.40;;;;;;4933596;29;20476;-75
2022/04/11 04:45:47;;;;;;;2.73;2.00;;;9.90;94.40;;;;;;4934127;29;20418;-75
2022/04/11 04:48:28;;;;;;;3.47;1.90;;;9.90;94.40;;;;;;4934674;29;20408;-76
2022/04/11 04:50:57;;;;;;;2.93;2.10;;;9.90;94.40;;;;;;4918814;29;20431;-76
2022/04/11 04:53:29;;;;;;;3.73;2.10;;;9.90;94.40;;;;;;4915555;29;20492;-76
2022/04/11 04:55:58;;;;;;;4.10;2.17;;;9.80;94.40;;;;;;4910021;29;20471;-76
2022/04/11 04:58:26;;;;;;;2.60;1.70;;;9.80;94.30;;;;;;4935035;29;20420;-76
2022/04/11 05:00:55;;;;;;;2.77;2.27;;;9.80;94.40;;;;;;4903510;29;20436;-76
2022/04/11 05:03:25;;;;;;;2.67;2.30;;;9.80;94.40;;;;;;4934758;29;20573;-76
2022/04/11 05:05:55;;;;;;;3.20;2.13;;;9.80;94.40;;;;;;4919141;29;20431;-76
2022/04/11 05:08:21;;;;;;;7.27;2.60;;;9.80;94.40;;;;;;4934517;29;20407;-76
2022/04/11 05:10:48;;;;;;;4.63;2.10;;;9.80;94.80;;;;;;4919137;29;20412;-76
2022/04/11 05:13:14;;;;;;;2.63;2.13;;;9.80;94.40;;;;;;4934569;29;20468;-76
2022/04/11 05:15:42;;;;;;;4.50;2.73;;;9.80;94.50;;;;;;4935122;29;20408;-76
2022/04/11 05:18:14;;;;;;;2.63;2.43;;;9.80;94.50;;;;;;4934871;29;20495;-76
2022/04/11 05:20:41;;;;;;;3.40;2.20;;;9.80;94.50;;;;;;4903332;29;20535;-76
2022/04/11 05:23:13;;;;;;;4.07;2.30;;;9.70;94.40;;;;;;4915332;29;20496;-76
2022/04/11 05:25:41;;;;;;;3.17;2.17;;;9.70;94.40;;;;;;4915882;29;20414;-76
2022/04/11 05:28:09;;;;;;;3.60;2.30;;;9.70;94.40;;;;;;4932845;29;20527;-76
2022/04/11 05:30:37;;;;;;;3.10;2.20;;;9.70;94.40;;;;;;4919252;29;20423;-76
2022/04/11 05:33:08;;;;;;;3.60;2.10;;;9.70;94.40;;;;;;4919027;29;20420;-76
2022/04/11 05:35:35;;;;;;;3.87;2.80;;;9.70;94.50;;;;;;4903439;29;20450;-76
2022/04/11 05:38:07;;;;;;;6.10;2.87;;;9.70;94.50;;;;;;4934375;29;20514;-75
2022/04/11 05:40:34;;;;;;;3.03;2.07;;;9.70;94.50;;;;;;4918519;29;20993;-76
2022/04/11 05:43:09;;;;;;;2.23;1.80;;;9.70;94.40;;;;;;4916206;29;20982;-73
2022/04/11 05:45:37;;;;;;;2.80;2.13;;;9.70;94.50;;;;;;4933944;29;20424;-76
2022/04/11 05:48:06;;;;;;;3.10;2.37;;;9.70;94.50;;;;;;4934659;29;20453;-76
2022/04/11 05:50:32;;;;;;;2.40;2.20;;;9.60;94.50;;;;;;4934453;29;20176;-75
2022/04/11 05:53:04;;;;;;;3.50;2.43;;;9.60;94.50;;;;;;4934502;29;20910;-76
2022/04/11 05:55:34;;;;;;;3.50;2.30;;;9.60;94.50;;;;;;4918950;29;20428;-76
2022/04/11 05:58:05;;;;;;;6.23;2.37;;;9.60;94.60;;;;;;4903018;29;20608;-76
2022/04/11 06:00:34;;;;;;;4.80;2.33;;;9.60;94.60;;;;;;4934549;29;20414;-76
2022/04/11 06:03:02;;;;;;;2.40;2.20;;;9.60;94.60;;;;;;4934361;29;20460;-75
2022/04/11 06:05:28;;;;;;;4.30;2.50;;;9.60;94.60;;;;;;4934467;29;20412;-76
2022/04/11 06:07:57;;;;;;;4.40;2.37;;;9.60;94.60;;;;;;4918767;29;20451;-76
2022/04/11 06:10:23;;;;;;;2.00;1.80;;;9.60;94.60;;;;;;4914442;29;20432;-76
2022/04/11 06:12:51;;;;;;;3.60;2.53;;;9.60;94.60;;;;;;4900269;29;20840;-77
2022/04/11 06:15:18;;;;;;;3.20;2.37;;;9.60;94.60;;;;;;4915357;29;20749;-76
2022/04/11 06:17:51;;;;;;;4.57;2.40;;;9.60;94.70;;;;;;4916280;29;20865;-76
2022/04/11 06:20:20;;;;;;;3.17;2.20;;;9.60;94.70;;;;;;4934538;29;20424;-76
2022/04/11 06:22:48;;;;;;;3.00;2.70;;;9.60;94.60;;;;;;4930372;29;20432;-76
2022/04/11 06:25:15;;;;;;;2.10;1.90;;;9.60;94.60;;;;;;4936814;29;20427;-76
2022/04/11 06:27:43;;;;;;;2.23;1.97;;;9.60;94.70;;;;;;4921309;29;20460;-76
2022/04/11 06:30:12;;;;;;;3.47;2.33;;;9.60;94.70;;;;;;4917887;29;20511;-76
2022/04/11 06:32:44;;;;;;;4.87;2.20;;;9.60;94.70;;;;;;4897768;29;20421;-76
2022/04/11 06:35:11;;;;;;;4.10;2.30;;;9.50;94.70;;;;;;4921254;29;20479;-76
2022/04/11 06:37:39;;;;;;;2.63;1.83;;;9.50;94.70;;;;;;4902222;29;20445;-76
2022/04/11 06:40:08;;;;;;;1.70;1.60;;;9.50;94.70;;;;;;4938073;29;20791;-76
2022/04/11 06:42:38;;;;;;;2.23;1.77;;;9.50;94.70;;;;;;4926592;29;20433;-76
2022/04/11 06:45:14;;;;;;;2.67;2.00;;;9.50;94.70;;;;;;4934627;29;21000;-78
2022/04/11 06:47:40;;;;;;;5.10;2.43;;;9.50;94.70;;;;;;4922024;29;20464;-78
2022/04/11 06:50:10;;;;;;;4.63;2.00;;;9.50;94.70;;;;;;4916076;29;20442;-78
2022/04/11 06:52:38;;;;;;;2.80;1.97;;;9.50;94.70;;;;;;4940077;29;20444;-77
2022/04/11 06:55:05;;;;;;;2.17;1.97;;;9.50;94.70;;;;;;4937669;29;20420;-78
2022/04/11 06:57:33;;;;;;;3.20;2.20;;;9.50;94.70;;;;;;4939260;29;20436;-78
2022/04/11 07:00:04;;;;;;;3.93;2.03;;;9.60;94.80;;;;;;4922712;29;20491;-78
2022/04/11 07:02:32;;;;;;;1.93;1.80;;;9.60;94.80;;;;;;4938814;29;20943;-76
2022/04/11 07:05:04;;;;;;;2.30;1.97;;;9.60;94.80;;;;;;4937188;29;20452;-76
2022/04/11 07:07:31;;;;;;;1.67;1.57;;;9.60;94.80;;;;;;4921604;29;20450;-76
2022/04/11 07:10:00;;;;;;;2.60;2.30;;;9.60;94.80;;;;;;4906788;29;20925;-77
2022/04/11 07:12:28;;;;;;;2.60;2.23;;;9.60;94.80;;;;;;4922002;29;20451;-77
2022/04/11 07:14:56;;;;;;;2.80;1.80;;;9.60;94.80;;;;;;4938007;29;20498;-77
2022/04/11 07:17:22;;;;;;;4.10;1.90;;;9.60;94.80;;;;;;4938775;29;20500;-77
2022/04/11 07:19:53;;;;;;;4.13;2.87;;;9.60;94.80;;;;;;4906557;29;20455;-77
2022/04/11 07:22:24;;;;;;;4.07;2.37;;;9.60;94.70;;;;;;4938620;29;20503;-77
2022/04/11 07:24:52;;;;;;;3.00;1.80;;;9.60;94.70;;;;;;4937509;29;20456;-77
2022/04/11 07:27:18;;;;;;;3.80;2.33;;;9.60;94.70;;;;;;4938402;29;20439;-77
2022/04/11 07:29:46;;;;;;;2.23;2.00;;;9.60;94.70;;;;;;4938735;29;20409;-77
2022/04/11 07:32:15;;;;;;;2.70;2.07;;;9.60;94.70;;;;;;4921451;29;20396;-76
2022/04/11 07:34:40;;;;;;;4.77;2.30;;;9.60;94.70;;;;;;4938173;29;21016;-77
2022/04/11 07:37:11;;;;;;;2.43;2.00;;;9.60;94.70;;;;;;4937184;29;20850;-77
2022/04/11 07:39:38;;;;;;;2.03;1.80;;;9.70;94.80;;;;;;4936741;29;20424;-76
2022/04/11 07:42:04;;;;;;;3.07;1.77;;;9.70;94.80;;;;;;4921152;29;20483;-77
2022/04/11 07:44:34;;;;;;;3.03;2.60;;;9.70;94.80;;;;;;4936550;29;20472;-77
2022/04/11 07:47:00;;;;;;;2.83;2.20;;;9.70;94.80;;;;;;4917757;29;20547;-77
2022/04/11 07:49:26;;;;;;;3.40;2.07;;;9.70;94.80;;;;;;4918702;29;20441;-76
2022/04/11 07:51:52;;;;;;;2.40;2.00;;;9.70;94.80;;;;;;4918737;29;20504;-76
2022/04/11 07:54:20;;;;;;;4.13;2.17;;;9.70;94.80;;;;;;4918513;29;20500;-77
2022/04/11 07:56:49;;;;;;;4.60;1.90;;;9.70;94.80;;;;;;4902367;29;20463;-77
2022/04/11 07:59:15;;;;;;;2.47;2.00;;;9.70;94.80;;;;;;4918604;29;20930;-77
2022/04/11 08:01:42;;;;;;;4.90;2.20;;;9.70;94.80;;;;;;4902818;29;20488;-77
2022/04/11 08:04:08;;;;;;;3.33;2.30;;;9.70;94.80;;;;;;4917884;29;21007;-77
2022/04/11 08:06:33;;;;;;;2.53;2.00;;;9.80;94.80;;;;;;4934031;29;20441;-76
2022/04/11 08:08:59;;;;;;;4.20;2.53;;;9.80;94.80;;;;;;4919086;29;20414;-77
2022/04/11 08:11:25;;;;;;;4.43;2.50;;;9.80;94.70;;;;;;4919299;29;20548;-77
2022/04/11 08:13:51;;;;;;;3.97;2.20;;;9.80;94.70;;;;;;4902861;29;20459;-77
2022/04/11 08:16:20;;;;;;;3.43;1.70;;;9.80;94.70;;;;;;4918757;29;20555;-77
2022/04/11 08:18:48;;;;;;;6.47;2.73;;;9.80;94.80;;;;;;4918155;29;20413;-77
2022/04/11 08:21:14;;;;;;;4.90;2.87;;;9.80;94.70;;;;;;4902804;29;21063;-77
2022/04/11 08:23:42;;;;;;;2.83;2.27;;;9.80;94.70;;;;;;4902640;29;20543;-77
2022/04/11 08:26:11;;;;;;;2.70;2.50;;;9.80;94.70;;;;;;4902586;29;20448;-77
2022/04/11 08:28:37;;;;;;;2.40;2.20;;;9.90;94.80;;;;;;4919016;29;20974;-77
2022/04/11 08:31:03;;;;;;;2.93;2.40;;;9.90;94.70;;;;;;4928536;29;20457;-77
2022/04/11 08:33:32;;;;;;;7.87;2.53;;;9.90;94.70;;;;;;4922137;29;20507;-77
2022/04/11 08:36:00;;;;;;;3.90;2.40;;;9.90;94.70;;;;;;4906564;29;20428;-77
2022/04/11 08:38:26;;;;;;;2.63;2.33;;;9.90;94.60;;;;;;4938083;29;20906;-77
2022/04/11 08:40:54;;;;;;;3.77;2.70;;;9.90;94.60;;;;;;4936173;29;20508;-77
2022/04/11 08:43:24;;;;;;;3.77;2.80;;;10.00;94.10;;;;;;4936574;29;20466;-77
2022/04/11 08:45:54;;;;;;;4.40;2.30;;;10.00;94.10;;;;;;4920935;29;20868;-77
2022/04/11 08:48:22;;;;;;;2.03;1.80;;;10.00;94.10;;;;;;4937548;29;20523;-77
2022/04/11 08:50:53;;;;;;;4.17;2.40;;;10.10;94.20;;;;;;4920578;29;20521;-77
2022/04/11 08:53:23;;;;;;;3.40;2.20;;;10.10;94.20;;;;;;4936343;29;20405;-77
2022/04/11 08:55:52;;;;;;;3.90;2.23;;;10.10;94.20;;;;;;4936066;29;20527;-77
2022/04/11 08:58:18;;;;;;;2.33;2.13;;;10.10;94.20;;;;;;4935408;29;20500;-76
2022/04/11 09:00:47;;;;;;;8.60;2.27;;;10.10;94.20;;;;;;4935548;29;20432;-76
2022/04/11 09:03:15;;;;;;;3.47;2.43;;;10.20;94.20;;;;;;4920082;29;21091;-77
2022/04/11 09:05:41;;;;;;;3.30;2.30;;;10.20;94.20;;;;;;4935731;29;20439;-76
2022/04/11 09:08:07;;;;;;;4.03;2.37;;;10.20;94.20;;;;;;4920215;29;20462;-77
2022/04/11 09:10:37;;;;;;;3.43;1.97;;;10.30;94.20;;;;;;4920402;29;20428;-77
2022/04/11 09:13:06;;;;;;;3.73;3.30;;;10.30;94.20;;;;;;4936278;29;20785;-76
2022/04/11 09:15:45;;;;;;;3.57;2.93;;;10.30;94.20;;;;;;4937295;29;20784;-77
2022/04/11 09:18:11;;;;;;;2.90;2.40;;;10.40;94.20;;;;;;4920333;29;20457;-76
2022/04/11 09:20:43;;;;;;;3.33;2.70;;;10.40;94.20;;;;;;4936300;29;20938;-77
2022/04/11 09:23:20;;;;;;;3.27;2.20;;;10.40;94.20;;;;;;4920226;29;20491;-76
2022/04/11 09:25:50;;;;;;;4.90;3.00;;;10.40;94.20;;;;;;4935536;29;20438;-76
2022/04/11 09:28:20;;;;;;;5.07;2.70;;;10.50;94.20;;;;;;4935155;29;21014;-73
2022/04/11 09:30:46;;;;;;;2.70;1.87;;;10.50;94.20;;;;;;4935685;29;20765;-75
2022/04/11 09:33:13;;;;;;;2.83;2.47;;;10.50;94.20;;;;;;4935370;29;20432;-74
2022/04/11 09:35:49;;;;;;;5.27;2.10;;;10.60;94.30;;;;;;4918646;29;21010;-73
2022/04/11 09:38:18;;;;;;;3.93;2.10;;;10.60;94.20;;;;;;4918426;29;20516;-73
2022/04/11 09:40:49;;;;;;;2.73;2.20;;;10.60;94.20;;;;;;4918953;29;20451;-73
2022/04/11 09:43:34;;;;;;;3.73;2.30;;;10.70;94.20;;;;;;4934215;29;20500;-73
2022/04/11 09:46:03;;;;;;;3.80;2.17;;;10.70;94.10;;;;;;4903160;29;20428;-73
2022/04/11 09:48:37;;;;;;;4.27;2.00;;;10.80;94.00;;;;;;4918640;29;20784;-73
2022/04/11 09:51:16;;;;;;;2.20;2.00;;;10.80;94.00;;;;;;4934112;29;20436;-73
2022/04/11 09:53:46;;;;;;;5.30;2.07;;;10.80;94.00;;;;;;4906437;29;20597;-73
2022/04/11 09:56:12;;;;;;;6.10;2.57;;;10.90;94.00;;;;;;4938269;29;20467;-74
2022/04/11 09:58:44;;;;;;;3.07;2.40;;;10.90;94.00;;;;;;4939065;29;20769;-73
2022/04/11 10:01:16;;;;;;;4.40;2.57;;;10.90;94.00;;;;;;4939060;29;20428;-73
2022/04/11 10:03:46;;;;;;;5.60;2.57;;;11.00;94.00;;;;;;4938017;29;20454;-73
2022/04/11 10:06:13;;;;;;;2.33;2.10;;;11.00;94.00;;;;;;4939197;29;20436;-74
2022/04/11 10:08:42;;;;;;;3.30;2.60;;;11.10;94.00;;;;;;4922474;29;20821;-75
2022/04/11 10:11:09;;;;;;;5.27;2.67;;;11.10;93.90;;;;;;4907482;29;20924;-77
2022/04/11 10:13:36;;;;;;;6.73;2.40;;;11.10;93.80;;;;;;4907564;29;20452;-77
2022/04/11 10:16:04;;;;;;;5.47;1.90;;;11.20;93.80;;;;;;4907658;29;20493;-77
2022/04/11 10:18:33;;;;;;;6.20;2.13;;;11.20;93.80;;;;;;4938922;29;20468;-77
2022/04/11 10:21:03;;;;;;;3.57;2.37;;;11.30;93.80;;;;;;4938705;29;20405;-76
2022/04/11 10:23:37;;;;;;;3.13;2.30;;;11.30;93.80;;;;;;4937962;29;20495;-76
2022/04/11 10:26:19;;;;;;;5.17;2.40;;;11.30;93.80;;;;;;4939246;29;20499;-76
2022/04/11 10:28:51;;;;;;;2.53;2.33;;;11.40;93.80;;;;;;4938058;29;20420;-76
2022/04/11 10:31:18;;;;;;;3.37;2.03;;;11.40;93.80;;;;;;4939095;29;20776;-76
2022/04/11 10:33:45;;;;;;;2.97;2.50;;;11.50;93.80;;;;;;4939174;29;20768;-76
2022/04/11 10:36:30;;;;;;;3.07;2.30;;;11.50;93.80;;;;;;4937700;29;20960;-76
2022/04/11 10:39:17;;;;;;;4.57;1.77;;;11.50;93.70;;;;;;4922131;29;20932;-76
2022/04/11 10:41:58;;;;;;;3.60;2.33;;;11.60;93.80;;;;;;4937720;29;20972;-76
2022/04/11 10:44:45;;;;;;;6.00;2.83;;;11.60;93.80;;;;;;4938729;29;20453;-76
2022/04/11 10:47:16;;;;;;;2.73;2.10;;;11.70;93.80;;;;;;4922172;29;20459;-76
2022/04/11 10:49:45;;;;;;;2.40;1.90;;;11.70;93.70;;;;;;4922287;29;20528;-76
2022/04/11 10:52:41;;;;;;;4.23;2.43;;;11.80;93.80;;;;;;4937555;29;20453;-76
2022/04/11 10:55:23;;;;;;;4.20;1.90;;;11.80;93.80;;;;;;4938786;29;20964;-76
2022/04/11 10:58:00;;;;;;;2.93;2.30;;;11.80;93.70;;;;;;4937562;29;20498;-76
2022/04/11 11:00:31;;;;;;;2.73;2.20;;;11.90;93.70;;;;;;4938681;29;20612;-76
2022/04/11 11:03:04;;;;;;;5.83;2.73;;;11.90;93.70;;;;;;4937362;29;20489;-76
2022/04/11 11:05:31;;;;;;;3.30;2.40;;;12.00;93.60;;;;;;4936794;29;20415;-76
2022/04/11 11:08:06;;;;;;;2.63;2.20;;;12.00;93.60;;;;;;4938522;29;20790;-76
2022/04/11 11:10:49;;;;;;;3.07;2.20;;;12.00;93.50;;;;;;4921928;29;20841;-77
2022/04/11 11:13:30;;;;;;;2.63;2.30;;;12.10;93.50;;;;;;4938741;29;20450;-77
2022/04/11 11:16:10;;;;;;;6.17;2.40;;;12.10;93.50;;;;;;4921925;29;20989;-75
2022/04/11 11:18:48;;;;;;;4.53;2.60;;;12.20;93.50;;;;;;4921175;29;20787;-74
2022/04/11 11:21:15;;;;;;;3.40;2.17;;;12.20;93.50;;;;;;4937892;29;20429;-74
2022/04/11 11:23:42;;;;;;;4.33;2.20;;;12.30;93.60;;;;;;4921710;29;20843;-76
2022/04/11 11:26:12;;;;;;;3.33;2.20;;;12.30;93.60;;;;;;4905769;29;20483;-75
2022/04/11 11:28:44;;;;;;;3.70;2.33;;;12.30;93.60;;;;;;4936190;29;20753;-75
2022/04/11 11:31:10;;;;;;;3.00;1.87;;;12.40;93.70;;;;;;4920300;29;20411;-75
2022/04/11 11:33:50;;;;;;;7.80;2.50;;;12.40;93.60;;;;;;4937615;29;20423;-75
2022/04/11 11:36:17;;;;;;;3.80;2.50;;;12.50;93.60;;;;;;4936168;29;20527;-75
2022/04/11 11:38:43;;;;;;;5.10;2.37;;;12.50;93.50;;;;;;4937142;29;20443;-75
2022/04/11 11:41:11;;;;;;;5.43;2.37;;;12.60;93.50;;;;;;4937649;29;20429;-75
2022/04/11 11:43:42;;;;;;;5.00;2.07;;;12.60;93.50;;;;;;4920230;29;20483;-75
2022/04/11 11:46:11;;;;;;;3.20;2.10;;;12.60;93.50;;;;;;4937311;29;20439;-75
2022/04/11 11:48:40;;;;;;;4.80;2.00;;;12.70;93.50;;;;;;4936309;29;20439;-75
2022/04/11 11:51:10;;;;;;;3.37;2.13;;;12.70;93.40;;;;;;4935922;29;20444;-75
2022/04/11 11:53:51;;;;;;;4.43;2.70;;;12.80;93.40;;;;;;4920667;29;20433;-75
2022/04/11 11:56:16;;;;;;;2.50;2.10;;;12.80;93.40;;;;;;4917044;29;20558;-75
2022/04/11 11:58:46;;;;;;;4.30;2.20;;;12.80;93.40;;;;;;4918008;29;20458;-75
2022/04/11 12:01:14;;;;;;;3.57;2.00;;;12.90;93.30;;;;;;4901257;29;20976;-75
2022/04/11 12:06:36;;;;;;;2.97;2.23;;;13.00;93.30;;;;;;4918180;29;20519;-74
2022/04/11 12:09:05;;;;;;;4.93;1.97;;;13.00;93.20;;;;;;4932764;29;20929;-75
2022/04/11 12:11:31;;;;;;;2.90;1.90;;;13.00;93.20;;;;;;4916760;29;20457;-75
2022/04/11 12:14:01;;;;;;;4.03;2.30;;;13.10;93.20;;;;;;4916488;29;20444;-75
2022/04/11 12:16:31;;;;;;;4.53;2.73;;;13.10;93.20;;;;;;4900051;29;20459;-75
2022/04/11 12:19:02;;;;;;;3.43;2.17;;;13.20;93.10;;;;;;4916436;29;20461;-75
2022/04/11 12:21:40;;;;;;;2.80;2.10;;;13.20;93.00;;;;;;4916694;29;20500;-75
2022/04/11 12:24:09;;;;;;;2.27;2.07;;;13.20;93.00;;;;;;4917563;29;20476;-75
2022/04/11 12:26:39;;;;;;;3.70;2.47;;;13.20;92.90;;;;;;4916415;29;20526;-74
2022/04/11 12:29:16;;;;;;;3.67;2.37;;;13.30;92.90;;;;;;4916512;29;20438;-75
2022/04/11 12:31:55;;;;;;;4.23;2.40;;;13.30;92.80;;;;;;4917621;29;20407;-75
2022/04/11 12:34:32;;;;;;;4.43;2.70;;;13.40;92.80;;;;;;4948812;29;20423;-73
2022/04/11 12:37:05;;;;;;;5.40;2.60;;;13.40;92.80;;;;;;4908759;29;20467;-74
2022/04/11 12:39:34;;;;;;;2.93;2.13;;;13.40;92.80;;;;;;4930164;29;20948;-75
2022/04/11 12:42:20;;;;;;;4.00;2.27;;;13.50;92.80;;;;;;4935302;29;20427;-75
2022/04/11 12:44:51;;;;;;;4.07;2.27;;;13.50;92.70;;;;;;4934704;29;20533;-75
2022/04/11 12:47:20;;;;;;;5.77;2.30;;;13.50;92.70;;;;;;4934931;29;20441;-75
2022/04/11 12:49:50;;;;;;;3.80;2.20;;;13.60;92.70;;;;;;4935953;29;20408;-75
2022/04/11 12:52:18;;;;;;;2.70;2.17;;;13.60;92.60;;;;;;4935590;29;20473;-75
2022/04/11 12:54:49;;;;;;;3.40;2.17;;;13.60;92.60;;;;;;4935027;29;20444;-75
2022/04/11 12:57:34;;;;;;;3.23;1.80;;;13.70;92.60;;;;;;4934863;29;20504;-75
2022/04/11 13:00:23;;;;;;;3.03;2.67;;;13.70;92.60;;;;;;4934502;29;20416;-75
2022/04/11 13:02:52;;;;;;;3.77;2.57;;;13.80;92.50;;;;;;4918898;29;20557;-71
2022/04/11 13:05:20;;;;;;;8.40;1.90;;;13.80;92.50;;;;;;4925644;29;20471;-74
2022/04/11 13:07:47;;;;;;;2.07;1.90;;;13.80;92.40;;;;;;4939902;29;20522;-74